Time;durP1;ratioP1;P1;durP2;ratioP2;P2;SDS_P1;SDS_P2;PMS_P1;PMS_P2;Temp;Humidity;BMP_temperature;BMP_pressure;BME280_temperature;BME280_humidity;BME280_pressure;Samples;Min_cycle;Max_cycle;Signal;HPM_P1;HPM_P2
2023/03/22 00:00:43;;;;;;;;;;;;;;;27.35;39.26;94092.06;5008100;28;7291;-56
2023/03/22 00:03:17;;;;;;;;;;;;;;;27.32;39.42;94090.31;5012532;28;8968;-56
2023/03/22 00:05:59;;;;;;;;;;;;;;;27.33;39.33;94099.34;4993236;28;7528;-56
2023/03/22 00:08:35;;;;;;;;;;;;;;;27.34;39.41;94103.59;4994348;28;9715;-56
2023/03/22 00:11:05;;;;;;;;;;;;;;;27.32;39.18;94104.13;5002194;28;7251;-56
2023/03/22 00:13:33;;;;;;;;;;;;;;;27.30;39.46;94106.66;5010215;28;7344;-56
2023/03/22 00:16:04;;;;;;;;;;;;;;;27.32;39.45;94106.88;5010093;28;7867;-56
2023/03/22 00:18:54;;;;;;;;;;;;;;;27.33;39.29;94104.88;4995058;28;8701;-56
2023/03/22 00:21:20;;;;;;;;;;;;;;;27.34;39.47;94106.38;4995950;28;7046;-56
2023/03/22 00:23:59;;;;;;;;;;;;;;;27.33;39.27;94102.84;4991599;28;7227;-56
2023/03/22 00:26:34;;;;;;;;;;;;;;;27.32;39.23;94106.88;5008706;28;7103;-56
2023/03/22 00:29:22;;;;;;;;;;;;;;;27.30;39.24;94111.44;4994984;28;7266;-56
2023/03/22 00:31:50;;;;;;;;;;;;;;;27.30;39.32;94101.16;4984230;28;7040;-56
2023/03/22 00:34:30;;;;;;;;;;;;;;;27.31;38.78;94088.84;4989032;28;9941;-56
2023/03/22 00:36:56;;;;;;;;;;;;;;;27.30;39.33;94084.56;4996269;28;7104;-56
2023/03/22 00:39:30;;;;;;;;;;;;;;;27.28;39.20;94089.13;5012645;28;9046;-56
2023/03/22 00:42:03;;;;;;;;;;;;;;;27.27;39.36;94080.13;5025763;28;7069;-56
2023/03/22 00:44:36;;;;;;;;;;;;;;;27.25;39.46;94076.41;5018537;28;8776;-56
2023/03/22 00:47:12;;;;;;;;;;;;;;;27.26;39.25;94081.38;5012840;28;7160;-56
2023/03/22 00:49:40;;;;;;;;;;;;;;;27.25;39.58;94082.66;5001541;28;7047;-56
2023/03/22 00:52:13;;;;;;;;;;;;;;;27.23;39.29;94067.91;5015480;28;7672;-56
2023/03/22 00:54:44;;;;;;;;;;;;;;;27.26;39.41;94083.41;5001759;28;9174;-56
2023/03/22 00:57:11;;;;;;;;;;;;;;;27.21;39.63;94076.69;5007475;28;9263;-56
2023/03/22 00:59:47;;;;;;;;;;;;;;;27.24;39.04;94074.91;4999130;28;9233;-56
2023/03/22 01:02:28;;;;;;;;;;;;;;;27.23;39.44;94074.16;5001373;28;7403;-56
2023/03/22 01:05:08;;;;;;;;;;;;;;;27.23;39.29;94074.16;5044832;28;9026;-56
2023/03/22 01:07:40;;;;;;;;;;;;;;;27.23;39.55;94071.41;5027677;28;7841;-56
2023/03/22 01:10:07;;;;;;;;;;;;;;;27.21;39.67;94076.69;5010287;28;9068;-56
2023/03/22 01:12:35;;;;;;;;;;;;;;;27.22;39.13;94075.44;4999719;28;7068;-56
2023/03/22 01:15:06;;;;;;;;;;;;;;;27.21;39.50;94079.47;5026902;28;7824;-56
2023/03/22 01:17:42;;;;;;;;;;;;;;;27.21;39.50;94071.19;5005286;28;8800;-56
2023/03/22 01:20:11;;;;;;;;;;;;;;;27.19;39.12;94059.91;5044178;28;9062;-56
2023/03/22 01:22:41;;;;;;;;;;;;;;;27.25;39.35;94062.59;5011041;28;7939;-56
2023/03/22 01:25:07;;;;;;;;;;;;;;;27.22;39.22;94067.16;5007803;28;9225;-56
2023/03/22 01:27:35;;;;;;;;;;;;;;;27.23;38.88;94057.59;5003642;28;7574;-56
2023/03/22 01:30:05;;;;;;;;;;;;;;;27.20;39.34;94055.16;5016012;28;7378;-56
2023/03/22 01:32:35;;;;;;;;;;;;;;;27.18;39.31;94050.16;5012780;28;7266;-56
2023/03/22 01:35:07;;;;;;;;;;;;;;;27.18;39.57;94054.94;5029718;28;9088;-56
2023/03/22 01:37:34;;;;;;;;;;;;;;;27.16;39.12;94058.25;5005945;28;8714;-56
2023/03/22 01:40:26;;;;;;;;;;;;;;;27.17;39.71;94056.94;5011165;28;9021;-56
2023/03/22 01:43:24;;;;;;;;;;;;;;;27.16;39.68;94052.72;4991017;28;7445;-56
2023/03/22 01:46:02;;;;;;;;;;;;;;;27.17;39.31;94054.19;4959285;28;7232;-56
2023/03/22 01:49:10;;;;;;;;;;;;;;;27.21;39.26;94049.09;4958111;28;9027;-56
2023/03/22 01:51:39;;;;;;;;;;;;;;;27.23;39.14;94045.81;4962562;28;7112;-56
2023/03/22 01:54:11;;;;;;;;;;;;;;;27.23;39.06;94046.53;4965641;28;7033;-56
2023/03/22 01:56:42;;;;;;;;;;;;;;;27.22;39.06;94039.53;4940815;28;7249;-56
2023/03/22 01:59:14;;;;;;;;;;;;;;;27.20;39.21;94039.34;4952521;28;9270;-56
2023/03/22 02:01:40;;;;;;;;;;;;;;;27.17;39.55;94032.09;4967797;28;7300;-57
2023/03/22 02:04:24;;;;;;;;;;;;;;;27.20;39.61;94036.56;4950345;28;7135;-56
2023/03/22 02:07:25;;;;;;;;;;;;;;;27.23;39.23;94041.03;4942872;28;7238;-56
2023/03/22 02:09:53;;;;;;;;;;;;;;;27.22;39.07;94036.78;4932051;29;8963;-56
2023/03/22 02:13:02;;;;;;;;;;;;;;;27.25;38.93;94041.22;4916474;29;8996;-56
2023/03/22 02:16:16;;;;;;;;;;;;;;;27.25;39.14;94035.72;4934265;29;7069;-56
2023/03/22 02:19:14;;;;;;;;;;;;;;;27.24;39.19;94041.78;4917414;29;7113;-56
2023/03/22 02:22:20;;;;;;;;;;;;;;;27.22;39.06;94039.53;4898900;29;7059;-56
2023/03/22 02:25:24;;;;;;;;;;;;;;;27.20;39.03;94036.56;4881517;29;7006;-56
2023/03/22 02:28:23;;;;;;;;;;;;;;;27.22;38.96;94028.50;4880086;29;6962;-56
2023/03/22 02:31:26;;;;;;;;;;;;;;;27.20;38.90;94031.06;4877634;29;8590;-56
2023/03/22 02:33:58;;;;;;;;;;;;;;;27.18;39.52;94039.13;4881099;29;7262;-56
2023/03/22 02:37:00;;;;;;;;;;;;;;;27.21;39.22;94027.00;4880001;29;7179;-56
2023/03/22 02:40:17;;;;;;;;;;;;;;;27.21;38.75;94026.28;4880241;29;8900;-56
2023/03/22 02:43:37;;;;;;;;;;;;;;;27.21;39.02;94023.53;4879343;29;7121;-56
2023/03/22 02:46:43;;;;;;;;;;;;;;;27.21;39.16;94018.72;4875374;29;7030;-56
2023/03/22 02:49:48;;;;;;;;;;;;;;;27.21;38.92;94021.47;4897102;29;7008;-56
2023/03/22 02:52:45;;;;;;;;;;;;;;;27.22;38.79;94028.50;4855473;29;7115;-56
2023/03/22 02:55:41;;;;;;;;;;;;;;;27.19;39.12;94029.56;4868790;29;9014;-56
2023/03/22 02:58:52;;;;;;;;;;;;;;;27.19;39.04;94029.56;4842578;29;9300;-56
2023/03/22 03:01:26;;;;;;;;;;;;;;;27.16;39.27;94022.34;4840192;29;9005;-56
2023/03/22 03:04:18;;;;;;;;;;;;;;;27.19;39.48;94032.31;4845968;29;8764;-56
2023/03/22 03:07:00;;;;;;;;;;;;;;;27.18;39.10;94027.31;4841913;29;7354;-56
2023/03/22 03:09:42;;;;;;;;;;;;;;;27.18;39.03;94028.06;4838828;29;7443;-56
2023/03/22 03:12:41;;;;;;;;;;;;;;;27.19;39.04;94034.31;4837659;29;8962;-56
2023/03/22 03:15:15;;;;;;;;;;;;;;;27.18;39.17;94024.56;4822685;29;7104;-56
2023/03/22 03:17:52;;;;;;;;;;;;;;;27.18;38.85;94021.81;4820874;29;9241;-56
2023/03/22 03:20:53;;;;;;;;;;;;;;;27.19;38.89;94023.28;4857315;29;6958;-56
2023/03/22 03:23:37;;;;;;;;;;;;;;;27.13;39.18;94025.41;4851238;29;7303;-56
2023/03/22 03:26:20;;;;;;;;;;;;;;;27.11;39.20;94025.94;4865612;29;7266;-56
2023/03/22 03:29:05;;;;;;;;;;;;;;;27.11;39.08;94020.41;4876244;29;6910;-56
2023/03/22 03:31:40;;;;;;;;;;;;;;;27.14;38.95;94027.66;4860059;29;9386;-56
2023/03/22 03:34:41;;;;;;;;;;;;;;;27.11;39.25;94027.94;4874945;29;8237;-56
2023/03/22 03:37:14;;;;;;;;;;;;;;;27.10;39.22;94032.72;4878450;29;9011;-56
2023/03/22 03:39:54;;;;;;;;;;;;;;;27.09;39.05;94031.25;4916486;29;7210;-56
2023/03/22 03:42:29;;;;;;;;;;;;;;;27.09;39.06;94030.50;4949113;28;7216;-56
2023/03/22 03:44:57;;;;;;;;;;;;;;;27.08;39.33;94029.75;4934333;28;7478;-56
2023/03/22 03:47:29;;;;;;;;;;;;;;;27.13;38.76;94041.97;4913828;29;8809;-56
2023/03/22 03:49:55;;;;;;;;;;;;;;;27.14;39.15;94044.22;4922860;28;7257;-56
2023/03/22 03:52:23;;;;;;;;;;;;;;;27.14;39.04;94043.47;4950829;28;8957;-56
2023/03/22 03:54:50;;;;;;;;;;;;;;;27.15;38.87;94034.66;4966820;28;8821;-56
2023/03/22 03:57:19;;;;;;;;;;;;;;;27.15;38.95;94040.16;4952451;28;7506;-56
2023/03/22 03:59:47;;;;;;;;;;;;;;;27.13;39.00;94034.44;4969850;28;8555;-56
2023/03/22 04:02:15;;;;;;;;;;;;;;;27.14;39.06;94033.19;4967706;28;7080;-56
2023/03/22 04:04:41;;;;;;;;;;;;;;;27.16;39.02;94043.69;4979903;28;8639;-56
2023/03/22 04:07:10;;;;;;;;;;;;;;;27.16;38.88;94038.16;4945350;28;7114;-56
2023/03/22 04:09:37;;;;;;;;;;;;;;;27.09;38.99;94036.03;4968081;28;7011;-56
2023/03/22 04:12:05;;;;;;;;;;;;;;;27.08;38.68;94043.56;4954012;28;9382;-56
2023/03/22 04:14:34;;;;;;;;;;;;;;;27.09;38.79;94047.81;4991132;28;7648;-56
2023/03/22 04:17:00;;;;;;;;;;;;;;;27.09;38.99;94045.06;5007495;28;7782;-56
2023/03/22 04:19:26;;;;;;;;;;;;;;;27.08;38.93;94049.06;5006325;28;8895;-56
2023/03/22 04:21:54;;;;;;;;;;;;;;;27.06;39.12;94043.34;5004372;28;9632;-56
2023/03/22 04:24:22;;;;;;;;;;;;;;;27.05;39.50;94039.09;5012705;28;7041;-56
2023/03/22 04:26:51;;;;;;;;;;;;;;;27.03;39.52;94036.13;5007122;28;7548;-56
2023/03/22 04:29:17;;;;;;;;;;;;;;;27.06;39.07;94039.81;5009407;28;8729;-56
2023/03/22 04:31:43;;;;;;;;;;;;;;;27.03;39.34;94043.66;5013451;28;7042;-56
2023/03/22 04:34:09;;;;;;;;;;;;;;;27.05;39.09;94041.13;5022284;28;7291;-56
2023/03/22 04:36:38;;;;;;;;;;;;;;;27.05;39.15;94041.88;5022665;28;9040;-56
2023/03/22 04:39:09;;;;;;;;;;;;;;;27.05;38.63;94041.88;5007390;28;9353;-56
2023/03/22 04:41:37;;;;;;;;;;;;;;;27.03;38.93;94047.19;5012945;28;9367;-56
2023/03/22 04:44:10;;;;;;;;;;;;;;;27.03;39.00;94044.41;5041665;28;7221;-56
2023/03/22 04:46:54;;;;;;;;;;;;;;;27.03;39.01;94049.94;5014174;28;7274;-56
2023/03/22 04:49:22;;;;;;;;;;;;;;;27.05;39.23;94041.88;5035329;28;7231;-56
2023/03/22 04:51:52;;;;;;;;;;;;;;;27.03;39.10;94038.91;5012860;28;8902;-56
2023/03/22 04:54:39;;;;;;;;;;;;;;;27.01;39.12;94029.66;5005725;28;7061;-56
2023/03/22 04:57:09;;;;;;;;;;;;;;;27.03;39.02;94033.38;5029088;28;7015;-56
2023/03/22 04:59:46;;;;;;;;;;;;;;;27.02;39.10;94028.38;5028675;28;7296;-56
2023/03/22 05:02:19;;;;;;;;;;;;;;;27.02;39.10;94029.13;5007509;28;7322;-56
2023/03/22 05:04:56;;;;;;;;;;;;;;;27.04;39.26;94028.56;5019428;28;7034;-56
2023/03/22 05:07:22;;;;;;;;;;;;;;;27.02;39.17;94025.59;5010658;28;8157;-56
2023/03/22 05:09:56;;;;;;;;;;;;;;;27.02;38.70;94034.63;5009785;28;7267;-56
2023/03/22 05:12:39;;;;;;;;;;;;;;;27.03;39.34;94033.38;5011814;28;9012;-56
2023/03/22 05:15:50;;;;;;;;;;;;;;;27.05;39.54;94032.84;5044628;28;9224;-56
2023/03/22 05:18:19;;;;;;;;;;;;;;;27.02;39.17;94026.34;4947269;28;7029;-56
2023/03/22 05:21:05;;;;;;;;;;;;;;;27.02;39.51;94029.13;4954326;28;7268;-56
2023/03/22 05:23:32;;;;;;;;;;;;;;;27.00;38.90;94028.16;4969313;28;7048;-56
2023/03/22 05:26:03;;;;;;;;;;;;;;;26.99;39.37;94027.41;4955672;28;7018;-56
2023/03/22 05:28:39;;;;;;;;;;;;;;;26.98;39.33;94014.13;4956120;28;7247;-56
2023/03/22 05:31:20;;;;;;;;;;;;;;;26.97;39.02;94010.63;4951685;28;7215;-56
2023/03/22 05:33:56;;;;;;;;;;;;;;;26.99;39.31;94016.34;4971661;28;7277;-56
2023/03/22 05:36:35;;;;;;;;;;;;;;;26.96;39.60;94014.66;4973960;28;7335;-56
2023/03/22 05:39:21;;;;;;;;;;;;;;;26.89;39.41;94009.78;4967864;28;9365;-56
2023/03/22 05:41:48;;;;;;;;;;;;;;;26.89;39.56;94012.53;4961278;28;7070;-56
2023/03/22 05:44:32;;;;;;;;;;;;;;;26.88;39.50;94016.56;4974663;28;6848;-56
2023/03/22 05:46:58;;;;;;;;;;;;;;;26.87;39.67;94015.06;4977028;28;8726;-57
2023/03/22 05:49:25;;;;;;;;;;;;;;;26.83;39.42;94015.41;4959062;28;9621;-56
2023/03/22 05:52:06;;;;;;;;;;;;;;;26.84;39.98;94022.38;4956152;28;9042;-56
2023/03/22 05:54:32;;;;;;;;;;;;;;;26.82;39.52;94024.19;4986093;28;7048;-56
2023/03/22 05:56:58;;;;;;;;;;;;;;;26.83;39.62;94026.44;5026917;28;7243;-56
2023/03/22 05:59:30;;;;;;;;;;;;;;;26.83;39.01;94025.69;5027412;28;8962;-56
2023/03/22 06:02:09;;;;;;;;;;;;;;;26.81;39.01;94023.47;4999305;28;7044;-56
2023/03/22 06:04:42;;;;;;;;;;;;;;;26.78;39.52;94019.00;5024262;28;7266;-56
2023/03/22 06:07:20;;;;;;;;;;;;;;;26.77;39.69;94016.75;5007287;28;9002;-56
2023/03/22 06:09:49;;;;;;;;;;;;;;;26.76;39.30;94031.81;5021156;28;7182;-56
2023/03/22 06:12:21;;;;;;;;;;;;;;;26.76;39.28;94026.31;5010932;28;9288;-56
2023/03/22 06:14:48;;;;;;;;;;;;;;;26.73;39.30;94016.34;5007096;28;8793;-56
2023/03/22 06:17:18;;;;;;;;;;;;;;;26.75;38.84;94024.84;5044556;28;7350;-56
2023/03/22 06:19:49;;;;;;;;;;;;;;;26.72;39.84;94020.31;5012448;28;7419;-56
2023/03/22 06:22:29;;;;;;;;;;;;;;;26.71;39.96;94013.31;5014777;28;7188;-56
2023/03/22 06:25:04;;;;;;;;;;;;;;;26.70;39.86;94020.09;5025746;28;8788;-57
2023/03/22 06:27:33;;;;;;;;;;;;;;;26.71;40.08;94021.59;5014422;28;9344;-56
2023/03/22 06:30:00;;;;;;;;;;;;;;;26.68;40.40;94019.91;5022948;28;9351;-56
2023/03/22 06:32:29;;;;;;;;;;;;;;;26.70;39.63;94023.63;5014914;28;9597;-56
2023/03/22 06:34:55;;;;;;;;;;;;;;;26.75;39.67;94027.59;5012252;28;9080;-56
2023/03/22 06:37:30;;;;;;;;;;;;;;;26.75;39.25;94030.34;5012357;28;7126;-57
2023/03/22 06:40:08;;;;;;;;;;;;;;;26.74;38.36;94032.34;5001491;28;9224;-57
2023/03/22 06:42:48;;;;;;;;;;;;;;;26.71;38.18;94033.38;5023707;28;9104;-57
2023/03/22 06:45:44;;;;;;;;;;;;;;;26.70;39.30;94040.19;5044220;28;7361;-56
2023/03/22 06:48:28;;;;;;;;;;;;;;;26.73;39.82;94028.09;4933647;28;7116;-56
2023/03/22 06:51:39;;;;;;;;;;;;;;;26.77;38.35;94031.28;4937016;28;7341;-56
2023/03/22 06:54:22;;;;;;;;;;;;;;;26.76;38.93;94034.56;4905863;29;7782;-56
2023/03/22 06:56:48;;;;;;;;;;;;;;;26.70;39.04;94029.13;4897828;29;7252;-56
2023/03/22 06:59:15;;;;;;;;;;;;;;;26.74;38.92;94034.38;4907780;29;9019;-57
2023/03/22 07:01:55;;;;;;;;;;;;;;;26.74;38.58;94035.13;4899758;29;7020;-56
2023/03/22 07:04:26;;;;;;;;;;;;;;;26.75;38.78;94033.09;4902107;29;8729;-56
2023/03/22 07:07:02;;;;;;;;;;;;;;;26.79;38.99;94036.28;4899783;29;7533;-57
2023/03/22 07:09:41;;;;;;;;;;;;;;;26.81;38.39;94039.28;4866887;29;7061;-57
2023/03/22 07:12:08;;;;;;;;;;;;;;;26.80;38.70;94040.53;4886071;29;7228;-57
2023/03/22 07:14:36;;;;;;;;;;;;;;;26.76;38.65;94045.63;4908403;29;9726;-56
2023/03/22 07:17:13;;;;;;;;;;;;;;;26.75;38.94;94047.63;4897465;29;7030;-56
2023/03/22 07:19:41;;;;;;;;;;;;;;;26.78;39.33;94046.59;4887634;29;9167;-56
2023/03/22 07:22:07;;;;;;;;;;;;;;;26.82;39.47;94044.25;4887792;29;9118;-56
2023/03/22 07:24:36;;;;;;;;;;;;;;;26.82;38.92;94040.75;4913606;28;7488;-57
2023/03/22 07:27:02;;;;;;;;;;;;;;;26.82;38.55;94038.72;4985572;28;7249;-57
2023/03/22 07:29:36;;;;;;;;;;;;;;;26.85;39.06;94045.22;4969520;28;7152;-57
2023/03/22 07:32:03;;;;;;;;;;;;;;;26.85;39.36;94045.22;5025975;28;7223;-57
2023/03/22 07:34:33;;;;;;;;;;;;;;;26.84;39.23;94041.72;5013512;28;9060;-57
2023/03/22 07:37:05;;;;;;;;;;;;;;;26.86;39.69;94043.97;5005078;28;7886;-56
2023/03/22 07:39:44;;;;;;;;;;;;;;;26.88;39.33;94041.41;5024528;28;7494;-56
2023/03/22 07:42:19;;;;;;;;;;;;;;;26.87;39.53;94037.16;5008012;28;7509;-57
2023/03/22 07:45:06;;;;;;;;;;;;;;;26.87;39.10;94039.91;5009770;28;9501;-57
2023/03/22 07:47:37;;;;;;;;;;;;;;;26.86;39.50;94036.41;4995076;28;7298;-57
2023/03/22 07:50:05;;;;;;;;;;;;;;;26.88;39.36;94044.19;5010225;28;7248;-56
2023/03/22 07:52:32;;;;;;;;;;;;;;;26.90;39.21;94036.09;5013528;28;7514;-56
2023/03/22 07:55:03;;;;;;;;;;;;;;;26.88;39.36;94038.66;5030043;28;7067;-57
2023/03/22 07:57:29;;;;;;;;;;;;;;;26.89;39.11;94045.66;5004802;28;7200;-56
2023/03/22 07:59:55;;;;;;;;;;;;;;;26.89;39.32;94034.59;4993004;28;9603;-56
2023/03/22 08:02:27;;;;;;;;;;;;;;;26.87;39.30;94037.91;5012868;28;7226;-56
2023/03/22 08:05:00;;;;;;;;;;;;;;;26.90;39.76;94036.09;5013610;28;7325;-57
2023/03/22 08:07:29;;;;;;;;;;;;;;;26.92;39.88;94038.34;4991953;28;9102;-56
2023/03/22 08:09:58;;;;;;;;;;;;;;;26.90;39.75;94038.88;5042113;28;7441;-58
2023/03/22 08:12:27;;;;;;;;;;;;;;;26.91;39.36;94040.34;5010187;28;8201;-56
2023/03/22 08:14:58;;;;;;;;;;;;;;;26.94;39.41;94036.53;5020579;28;7279;-56
2023/03/22 08:17:25;;;;;;;;;;;;;;;26.96;39.41;94033.25;5020977;28;7482;-57
2023/03/22 08:19:55;;;;;;;;;;;;;;;26.95;39.93;94038.00;5010970;28;7567;-56
2023/03/22 08:22:24;;;;;;;;;;;;;;;26.98;39.88;94036.97;5003296;28;9420;-57
2023/03/22 08:24:53;;;;;;;;;;;;;;;26.99;39.24;94032.19;5012973;28;7183;-56
2023/03/22 08:27:26;;;;;;;;;;;;;;;26.96;39.33;94030.47;5005927;28;9222;-57
2023/03/22 08:29:58;;;;;;;;;;;;;;;26.97;39.95;94026.47;5009491;28;8434;-56
2023/03/22 08:32:25;;;;;;;;;;;;;;;26.95;39.79;94029.00;5011278;28;7032;-56
2023/03/22 08:34:52;;;;;;;;;;;;;;;26.98;39.62;94025.94;5019440;28;9371;-56
2023/03/22 08:37:27;;;;;;;;;;;;;;;27.00;40.17;94025.38;5010715;28;7277;-56
2023/03/22 08:40:17;;;;;;;;;;;;;;;27.02;39.97;94025.59;5038929;28;7492;-56
2023/03/22 08:42:50;;;;;;;;;;;;;;;27.02;40.20;94025.59;5011256;28;9264;-56
2023/03/22 08:45:49;;;;;;;;;;;;;;;27.03;40.28;94027.84;5013272;28;7095;-56
2023/03/22 08:48:59;;;;;;;;;;;;;;;27.03;39.82;94027.84;4928808;28;7449;-56
2023/03/22 08:51:35;;;;;;;;;;;;;;;27.00;39.68;94028.91;4923960;29;7038;-56
2023/03/22 08:54:03;;;;;;;;;;;;;;;27.02;40.53;94031.13;4919123;29;8141;-56
2023/03/22 08:56:31;;;;;;;;;;;;;;;27.02;40.21;94028.38;4929453;29;9602;-56
2023/03/22 08:58:57;;;;;;;;;;;;;;;27.04;39.95;94037.59;4923372;28;8718;-56
2023/03/22 09:01:41;;;;;;;;;;;;;;;27.03;40.45;94038.16;4937003;28;7307;-57
2023/03/22 09:04:07;;;;;;;;;;;;;;;26.98;40.51;94036.97;4947504;28;6869;-56
2023/03/22 09:06:36;;;;;;;;;;;;;;;27.00;40.38;94036.44;4948986;28;8479;-56
2023/03/22 09:09:20;;;;;;;;;;;;;;;27.03;40.58;94032.63;4935349;28;7041;-56
2023/03/22 09:11:55;;;;;;;;;;;;;;;27.00;40.16;94026.13;4947024;28;7043;-56
2023/03/22 09:14:30;;;;;;;;;;;;;;;27.02;40.47;94031.88;4934212;28;7019;-57
2023/03/22 09:17:08;;;;;;;;;;;;;;;26.94;40.10;94028.25;4937124;28;9133;-56
2023/03/22 09:19:46;;;;;;;;;;;;;;;26.97;40.21;94029.94;4939740;28;8837;-56
2023/03/22 09:22:15;;;;;;;;;;;;;;;26.95;40.79;94035.25;4959965;28;9125;-56
2023/03/22 09:24:41;;;;;;;;;;;;;;;26.96;40.17;94039.50;4965939;28;10858;-56
2023/03/22 09:27:09;;;;;;;;;;;;;;;26.94;40.70;94033.78;5022597;28;8432;-56
2023/03/22 09:29:36;;;;;;;;;;;;;;;26.95;40.88;94032.50;5035087;28;7733;-56
2023/03/22 09:32:05;;;;;;;;;;;;;;;26.94;40.07;94028.25;5023923;28;7104;-56
2023/03/22 09:34:32;;;;;;;;;;;;;;;26.95;40.48;94035.25;5041760;28;7264;-56
2023/03/22 09:37:11;;;;;;;;;;;;;;;26.95;40.53;94032.50;5023253;28;9045;-56
2023/03/22 09:39:40;;;;;;;;;;;;;;;26.95;41.22;94029.72;5008372;28;7184;-56
2023/03/22 09:42:37;;;;;;;;;;;;;;;26.98;42.13;94027.94;5006212;28;9603;-56
2023/03/22 09:45:23;;;;;;;;;;;;;;;26.96;40.72;94020.19;5009876;28;7218;-55
2023/03/22 09:47:57;;;;;;;;;;;;;;;26.99;40.64;94019.13;5001150;28;9018;-56
2023/03/22 09:50:32;;;;;;;;;;;;;;;26.98;40.83;94025.19;5023583;28;7781;-56
2023/03/22 09:53:15;;;;;;;;;;;;;;;26.99;40.74;94021.16;5006039;28;7406;-56
2023/03/22 09:56:14;;;;;;;;;;;;;;;27.02;40.27;94023.59;5020813;28;8751;-56
2023/03/22 09:58:51;;;;;;;;;;;;;;;27.04;40.44;94026.56;5018672;28;9525;-57
2023/03/22 10:01:42;;;;;;;;;;;;;;;27.05;39.75;94022.53;5037434;28;7297;-56
2023/03/22 10:04:31;;;;;;;;;;;;;;;27.05;40.38;94014.25;5019211;28;7461;-56
2023/03/22 10:07:19;;;;;;;;;;;;;;;27.05;40.26;94025.31;5000898;28;7208;-56
2023/03/22 10:10:00;;;;;;;;;;;;;;;27.07;40.02;94030.28;5019939;28;7088;-57
2023/03/22 10:12:34;;;;;;;;;;;;;;;27.08;40.04;94017.97;5017307;28;7023;-56
2023/03/22 10:15:33;;;;;;;;;;;;;;;27.10;40.21;94013.41;5003794;28;8769;-56
2023/03/22 10:18:04;;;;;;;;;;;;;;;27.09;39.71;94019.47;4971659;28;7913;-56
2023/03/22 10:20:47;;;;;;;;;;;;;;;27.05;40.10;94014.25;4979518;28;7307;-56
2023/03/22 10:23:36;;;;;;;;;;;;;;;27.09;40.59;94022.22;4970011;28;9174;-57
2023/03/22 10:26:28;;;;;;;;;;;;;;;27.09;39.73;94011.19;4969268;28;7262;-56
2023/03/22 10:29:32;;;;;;;;;;;;;;;27.08;39.85;94010.44;4969212;28;7293;-56
2023/03/22 10:32:28;;;;;;;;;;;;;;;27.09;39.84;94014.69;4981803;28;7529;-56
2023/03/22 10:34:55;;;;;;;;;;;;;;;27.10;40.23;94009.91;4986219;28;7178;-56
2023/03/22 10:37:32;;;;;;;;;;;;;;;27.10;39.93;94012.69;4974893;28;9404;-56
2023/03/22 10:40:07;;;;;;;;;;;;;;;27.11;39.91;94003.84;4971831;28;7142;-56
2023/03/22 10:42:46;;;;;;;;;;;;;;;27.13;39.98;93997.78;4983542;28;8854;-56
2023/03/22 10:45:25;;;;;;;;;;;;;;;27.12;39.89;93999.09;4980661;28;9373;-56
2023/03/22 10:48:27;;;;;;;;;;;;;;;27.14;39.67;94002.81;4976783;28;7195;-57
2023/03/22 10:51:03;;;;;;;;;;;;;;;27.17;39.49;93993.44;4987237;28;7408;-56
2023/03/22 10:53:35;;;;;;;;;;;;;;;27.15;39.46;93984.94;4977732;28;7172;-57
2023/03/22 10:56:19;;;;;;;;;;;;;;;27.18;40.35;93983.16;5010471;28;8260;-56
2023/03/22 10:58:50;;;;;;;;;;;;;;;27.16;40.12;93989.22;5023338;28;8793;-56
2023/03/22 11:01:54;;;;;;;;;;;;;;;27.15;39.73;93976.66;5026460;28;9303;-57
2023/03/22 11:04:21;;;;;;;;;;;;;;;27.16;39.84;93975.41;4933854;28;7494;-57
2023/03/22 11:06:58;;;;;;;;;;;;;;;27.13;39.89;93965.41;4934863;28;9163;-56
2023/03/22 11:09:37;;;;;;;;;;;;;;;27.16;39.46;93963.63;4964697;28;7390;-57
2023/03/22 11:12:11;;;;;;;;;;;;;;;27.17;39.54;93960.31;4950092;28;8663;-56
2023/03/22 11:14:51;;;;;;;;;;;;;;;27.19;39.31;93960.53;4944810;28;7042;-56
2023/03/22 11:17:36;;;;;;;;;;;;;;;27.20;39.82;93958.50;4937755;28;7275;-56
2023/03/22 11:20:33;;;;;;;;;;;;;;;27.23;39.26;93957.47;4949400;28;7252;-56
2023/03/22 11:23:16;;;;;;;;;;;;;;;27.26;39.17;93957.13;4894938;29;9013;-56
2023/03/22 11:26:04;;;;;;;;;;;;;;;27.28;39.40;93949.06;4894101;29;7472;-57
2023/03/22 11:29:23;;;;;;;;;;;;;;;27.32;39.02;93949.47;4915477;29;9366;-56
2023/03/22 11:32:21;;;;;;;;;;;;;;;27.35;39.23;93951.22;4891393;29;9675;-55
2023/03/22 11:35:24;;;;;;;;;;;;;;;27.37;39.25;93958.94;4899426;29;7233;-55
2023/03/22 11:38:01;;;;;;;;;;;;;;;27.40;38.77;93949.59;4878729;29;7364;-54
2023/03/22 11:40:35;;;;;;;;;;;;;;;27.42;39.10;93947.06;4930901;28;7251;-56
2023/03/22 11:43:25;;;;;;;;;;;;;;;27.45;39.06;93946.72;4934136;28;9093;-56
2023/03/22 11:45:57;;;;;;;;;;;;;;;27.45;39.12;93930.16;4937151;28;7126;-56
2023/03/22 11:48:29;;;;;;;;;;;;;;;27.45;39.00;93930.16;4946746;28;9197;-56
2023/03/22 11:51:07;;;;;;;;;;;;;;;27.43;39.18;93935.47;4950373;28;8594;-56
2023/03/22 11:53:47;;;;;;;;;;;;;;;27.43;39.17;93935.47;4963378;28;9581;-56
2023/03/22 11:56:26;;;;;;;;;;;;;;;27.42;39.11;93933.25;4935647;28;6986;-56
2023/03/22 11:59:30;;;;;;;;;;;;;;;27.39;39.42;93926.75;4954653;28;9358;-56
2023/03/22 12:02:21;;;;;;;;;;;;;;;27.37;39.32;93917.53;4875267;29;6989;-56
2023/03/22 12:04:55;;;;;;;;;;;;;;;27.36;39.38;93924.34;4877102;29;7264;-56
2023/03/22 12:07:48;;;;;;;;;;;;;;;27.33;39.29;93912.31;4870483;29;7221;-56
2023/03/22 12:10:38;;;;;;;;;;;;;;;27.36;39.20;93914.00;4874274;29;7332;-56
2023/03/22 12:13:56;;;;;;;;;;;;;;;27.35;39.09;93909.78;4889953;29;7031;-56
2023/03/22 12:16:59;;;;;;;;;;;;;;;27.33;39.34;93906.78;4888562;29;7106;-56
2023/03/22 12:20:05;;;;;;;;;;;;;;;27.35;39.26;93906.25;4866067;29;8762;-56
2023/03/22 12:22:36;;;;;;;;;;;;;;;27.34;39.54;93896.50;4868056;29;8475;-56
2023/03/22 12:25:03;;;;;;;;;;;;;;;27.30;39.41;93896.78;4869536;29;7636;-56
2023/03/22 12:27:45;;;;;;;;;;;;;;;27.35;38.44;93895.97;4876846;29;7275;-56
2023/03/22 12:30:46;;;;;;;;;;;;;;;27.43;38.50;93885.00;4873738;29;9603;-56
2023/03/22 12:33:23;;;;;;;;;;;;;;;27.51;38.43;93883.09;4878727;29;8011;-56
2023/03/22 12:36:05;;;;;;;;;;;;;;;27.55;37.82;93878.72;4870057;29;7017;-56
2023/03/22 12:38:47;;;;;;;;;;;;;;;27.58;37.56;93872.09;4908810;29;7897;-56
2023/03/22 12:41:56;;;;;;;;;;;;;;;27.61;38.22;93879.34;4914197;29;7240;-56
2023/03/22 12:44:26;;;;;;;;;;;;;;;27.63;38.33;93874.00;4925995;29;7619;-56
2023/03/22 12:47:18;;;;;;;;;;;;;;;27.68;37.91;93868.88;4916577;29;7734;-56
2023/03/22 12:50:16;;;;;;;;;;;;;;;27.70;37.98;93866.34;4933570;28;7248;-56
2023/03/22 12:52:48;;;;;;;;;;;;;;;27.71;37.94;93862.31;4944469;28;9197;-56
2023/03/22 12:55:31;;;;;;;;;;;;;;;27.71;37.78;93860.25;4997023;28;7159;-56
2023/03/22 12:57:59;;;;;;;;;;;;;;;27.75;37.92;93851.66;5006783;28;7059;-56
2023/03/22 13:00:44;;;;;;;;;;;;;;;27.76;37.45;93848.34;5014603;28;7056;-56
2023/03/22 13:03:21;;;;;;;;;;;;;;;27.79;37.82;93852.06;5041540;28;7038;-56
2023/03/22 13:05:57;;;;;;;;;;;;;;;27.84;37.46;93851.19;5008958;28;7299;-56
2023/03/22 13:08:49;;;;;;;;;;;;;;;27.88;37.15;93857.13;5006880;28;9339;-56
2023/03/22 13:11:24;;;;;;;;;;;;;;;27.85;37.81;93853.41;5003635;28;7326;-56
2023/03/22 13:13:50;;;;;;;;;;;;;;;27.81;37.44;93843.97;5012053;28;9332;-56
2023/03/22 13:16:21;;;;;;;;;;;;;;;27.81;37.67;93838.44;5017604;28;7183;-56
2023/03/22 13:18:47;;;;;;;;;;;;;;;27.79;37.96;93843.75;5006563;28;7599;-56
2023/03/22 13:21:20;;;;;;;;;;;;;;;27.76;37.76;93836.53;5010161;28;8985;-56
2023/03/22 13:24:09;;;;;;;;;;;;;;;27.77;37.13;93836.03;5016640;28;9443;-56
2023/03/22 13:26:52;;;;;;;;;;;;;;;27.83;37.65;93833.13;5016988;28;7032;-56
2023/03/22 13:29:36;;;;;;;;;;;;;;;27.89;37.58;93831.69;5010223;28;7437;-56
2023/03/22 13:32:32;;;;;;;;;;;;;;;27.91;37.60;93829.13;5018102;28;7952;-57
2023/03/22 13:34:59;;;;;;;;;;;;;;;27.90;37.48;93822.13;5042137;28;8048;-56
2023/03/22 13:37:37;;;;;;;;;;;;;;;27.90;37.45;93829.69;5003213;28;7041;-56
2023/03/22 13:40:30;;;;;;;;;;;;;;;27.94;37.34;93830.84;5012105;28;7978;-56
2023/03/22 13:43:28;;;;;;;;;;;;;;;27.98;37.80;93827.75;5007022;28;8983;-56
2023/03/22 13:46:08;;;;;;;;;;;;;;;28.01;37.42;93826.69;5010726;28;7167;-56
2023/03/22 13:52:08;;;;;;;;;;;;;;;28.07;37.71;93830.03;4960665;28;7646;-57
2023/03/22 13:54:52;;;;;;;;;;;;;;;28.09;37.68;93819.19;4948893;28;9328;-56
2023/03/22 13:57:57;;;;;;;;;;;;;;;28.14;37.34;93821.06;4959920;28;7367;-56
2023/03/22 14:00:55;;;;;;;;;;;;;;;28.14;37.53;93819.03;4959246;28;7363;-56